createdAt,value
2022-11-15T00:01:18.706Z,34.58
2022-11-15T00:03:47.084Z,33.38
2022-11-15T00:06:14.641Z,37.00
2022-11-15T00:08:41.807Z,34.15
2022-11-15T00:11:12.511Z,35.00
2022-11-15T00:13:40.239Z,30.77
2022-11-15T00:16:07.671Z,36.55
2022-11-15T00:18:34.990Z,31.70
2022-11-15T00:21:10.218Z,37.33
2022-11-15T00:23:38.201Z,32.95
2022-11-15T00:26:05.999Z,30.77
2022-11-15T00:28:33.580Z,36.60
2022-11-15T00:31:06.292Z,30.60
2022-11-15T00:33:34.548Z,34.60
2022-11-15T00:36:11.559Z,36.97
2022-11-15T00:38:41.072Z,35.67
2022-11-15T00:41:10.170Z,38.15
2022-11-15T00:43:37.981Z,32.90
2022-11-15T00:46:05.604Z,37.20
2022-11-15T00:48:33.073Z,33.80
2022-11-15T00:51:00.293Z,40.40
2022-11-15T00:53:27.585Z,41.45
2022-11-15T00:55:54.822Z,38.90
2022-11-15T00:58:22.033Z,36.40
2022-11-15T01:00:49.360Z,42.83
2022-11-15T01:03:16.695Z,39.70
2022-11-15T01:05:43.928Z,39.45
2022-11-15T01:08:15.493Z,41.00
2022-11-15T01:10:43.447Z,39.65
2022-11-15T01:13:10.810Z,36.22
2022-11-15T01:15:42.024Z,40.70
2022-11-15T01:18:10.130Z,38.10
2022-11-15T01:20:42.912Z,36.15
2022-11-15T01:23:10.502Z,35.85
2022-11-15T01:25:38.578Z,38.03
2022-11-15T01:28:05.787Z,37.30
2022-11-15T01:30:33.118Z,33.28
2022-11-15T01:33:00.407Z,37.75
2022-11-15T01:35:27.612Z,30.50
2022-11-15T01:37:54.779Z,33.75
2022-11-15T01:40:22.057Z,30.52
2022-11-15T01:42:49.232Z,36.60
2022-11-15T01:45:17.580Z,35.70
2022-11-15T01:47:53.559Z,34.03
2022-11-15T01:50:28.866Z,32.85
2022-11-15T01:52:56.652Z,38.55
2022-11-15T01:55:29.838Z,33.40
2022-11-15T01:58:03.928Z,36.35
2022-11-15T02:00:32.634Z,40.38
2022-11-15T02:02:59.908Z,37.13
2022-11-15T02:05:27.275Z,35.78
2022-11-15T02:07:55.324Z,35.28
2022-11-15T02:10:25.524Z,34.20
2022-11-15T02:12:54.235Z,38.88
2022-11-15T02:15:22.044Z,32.50
2022-11-15T02:18:16.157Z,40.65
2022-11-15T02:21:14.199Z,39.28
2022-11-15T02:24:34.045Z,40.20
2022-11-15T02:27:40.820Z,35.42
2022-11-15T02:30:42.361Z,31.88
2022-11-15T02:33:29.812Z,32.22
2022-11-15T02:36:14.821Z,31.60
2022-11-15T02:39:08.664Z,32.60
2022-11-15T02:41:55.367Z,30.85
2022-11-15T02:44:44.463Z,31.73
2022-11-15T02:47:18.229Z,25.85
2022-11-15T02:49:51.288Z,30.90
2022-11-15T02:55:00.612Z,30.77
2022-11-15T02:58:09.098Z,37.10
2022-11-15T03:00:51.444Z,31.85
2022-11-15T03:03:49.112Z,35.97
2022-11-15T03:07:02.347Z,32.35
2022-11-15T03:09:50.012Z,29.08
2022-11-15T03:12:51.235Z,29.77
2022-11-15T03:15:32.794Z,28.98
2022-11-15T03:18:19.254Z,36.40
2022-11-15T03:20:49.588Z,38.30
2022-11-15T03:23:18.420Z,42.25
2022-11-15T03:25:51.111Z,37.40
2022-11-15T03:28:29.538Z,33.15
2022-11-15T03:30:58.065Z,35.17
2022-11-15T03:33:26.691Z,32.88
2022-11-15T03:35:56.164Z,35.55
2022-11-15T03:38:27.455Z,37.08
2022-11-15T03:41:01.323Z,35.33
2022-11-15T03:43:51.768Z,39.22
2022-11-15T03:46:29.271Z,33.38
2022-11-15T03:49:20.747Z,33.83
2022-11-15T03:51:48.098Z,28.30
2022-11-15T03:54:15.413Z,30.60
2022-11-15T03:56:42.618Z,25.98
2022-11-15T03:59:09.785Z,27.52
2022-11-15T04:01:36.983Z,27.58
2022-11-15T04:04:04.327Z,27.67
2022-11-15T04:06:31.482Z,28.73
2022-11-15T04:08:58.694Z,26.00
2022-11-15T04:11:25.860Z,28.42
2022-11-15T04:13:53.068Z,30.98
2022-11-15T04:16:20.250Z,27.75
2022-11-15T04:19:07.472Z,32.28
2022-11-15T04:21:53.349Z,28.55
2022-11-15T04:24:20.557Z,33.25
2022-11-15T04:26:47.737Z,28.05
2022-11-15T04:29:33.667Z,31.65
2022-11-15T04:32:02.838Z,37.75
2022-11-15T04:34:30.117Z,34.35
2022-11-15T04:37:12.713Z,39.15
2022-11-15T04:39:41.888Z,37.88
2022-11-15T04:42:09.775Z,40.30
2022-11-15T04:44:36.954Z,40.70
2022-11-15T04:47:04.569Z,46.97
2022-11-15T04:49:31.773Z,34.15
2022-11-15T04:51:59.053Z,39.92
2022-11-15T04:54:26.427Z,30.70
2022-11-15T04:56:53.697Z,26.38
2022-11-15T04:59:20.910Z,24.70
2022-11-15T05:01:48.135Z,31.25
2022-11-15T05:04:21.585Z,33.63
2022-11-15T05:06:51.545Z,37.17
2022-11-15T05:09:21.359Z,32.92
2022-11-15T05:11:48.975Z,34.60
2022-11-15T05:14:16.674Z,34.03
2022-11-15T05:16:44.209Z,32.55
2022-11-15T05:19:11.363Z,35.45
2022-11-15T05:21:38.571Z,34.75
2022-11-15T05:24:06.477Z,37.22
2022-11-15T05:26:33.667Z,32.97
2022-11-15T05:29:00.915Z,32.60
2022-11-15T05:31:29.153Z,43.42
2022-11-15T05:33:59.316Z,36.05
2022-11-15T05:36:36.572Z,42.65
2022-11-15T05:39:09.028Z,50.45
2022-11-15T05:41:47.462Z,52.35
2022-11-15T05:44:20.994Z,48.70
2022-11-15T05:46:52.191Z,62.72
2022-11-15T05:49:25.826Z,50.33
2022-11-15T05:51:54.841Z,48.05
2022-11-15T05:54:24.722Z,45.05
2022-11-15T05:56:52.616Z,41.42
2022-11-15T05:59:20.687Z,43.33
2022-11-15T06:01:48.005Z,39.72
2022-11-15T06:04:15.200Z,37.70
2022-11-15T06:06:42.339Z,43.70
2022-11-15T06:09:09.470Z,43.92
2022-11-15T06:11:36.689Z,42.35
2022-11-15T06:14:04.008Z,39.78
2022-11-15T06:16:31.194Z,42.95
2022-11-15T06:18:58.384Z,35.40
2022-11-15T06:21:25.640Z,37.35
2022-11-15T06:23:52.824Z,36.78
2022-11-15T06:26:20.350Z,39.22
2022-11-15T06:28:47.508Z,40.70
2022-11-15T06:31:14.705Z,40.88
2022-11-15T06:33:42.006Z,40.83
2022-11-15T06:36:18.163Z,34.47
2022-11-15T06:38:46.161Z,45.17
2022-11-15T06:41:15.116Z,35.13
2022-11-15T06:43:42.639Z,36.20
2022-11-15T06:46:10.795Z,39.53
2022-11-15T06:48:38.771Z,37.70
2022-11-15T06:51:06.329Z,34.70
2022-11-15T06:53:34.478Z,34.85
2022-11-15T06:56:07.458Z,42.95
2022-11-15T06:58:35.942Z,41.80
2022-11-15T07:01:10.491Z,44.78
2022-11-15T07:03:41.421Z,38.53
2022-11-15T07:06:10.051Z,35.88
2022-11-15T07:08:37.408Z,37.17
2022-11-15T07:11:08.864Z,41.97
2022-11-15T07:13:38.071Z,40.40
2022-11-15T07:16:11.291Z,39.35
2022-11-15T07:18:41.219Z,38.95
2022-11-15T07:21:11.889Z,32.72
2022-11-15T07:23:40.412Z,41.05
2022-11-15T07:26:09.262Z,36.55
2022-11-15T07:28:36.777Z,39.28
2022-11-15T07:31:09.555Z,38.20
2022-11-15T07:33:37.190Z,36.50
2022-11-15T07:36:07.232Z,38.70
2022-11-15T07:38:42.138Z,41.33
2022-11-15T07:41:10.755Z,39.22
2022-11-15T07:43:38.957Z,35.70
2022-11-15T07:46:10.176Z,41.30
2022-11-15T07:48:44.605Z,36.83
2022-11-15T07:51:17.296Z,35.22
2022-11-15T07:53:44.958Z,40.15
2022-11-15T07:56:13.061Z,31.92
2022-11-15T07:58:41.103Z,33.83
2022-11-15T08:01:12.626Z,34.92
2022-11-15T08:03:39.990Z,30.15
2022-11-15T08:06:07.252Z,31.27
2022-11-15T08:08:34.428Z,22.48
2022-11-15T08:11:01.964Z,22.23
2022-11-15T08:13:29.500Z,19.92
2022-11-15T08:16:02.067Z,21.60
2022-11-15T08:18:29.393Z,22.07
2022-11-15T08:21:01.381Z,24.60
2022-11-15T08:23:28.841Z,21.50
2022-11-15T08:26:05.039Z,18.92
2022-11-15T08:28:33.132Z,23.60
2022-11-15T08:31:00.365Z,20.50
2022-11-15T08:33:28.946Z,19.15
2022-11-15T08:36:01.450Z,20.48
2022-11-15T08:38:32.468Z,19.13
2022-11-15T08:41:04.951Z,17.38
2022-11-15T08:43:32.350Z,15.70
2022-11-15T08:46:00.138Z,13.93
2022-11-15T08:48:27.407Z,14.23
2022-11-15T08:50:56.444Z,13.75
2022-11-15T08:53:24.380Z,13.90
2022-11-15T08:55:51.529Z,14.25
2022-11-15T08:58:18.691Z,20.85
2022-11-15T09:00:45.839Z,15.73
2022-11-15T09:03:13.008Z,13.75
2022-11-15T09:05:40.238Z,12.95
2022-11-15T09:08:32.422Z,12.85
2022-11-15T09:10:55.042Z,12.10
2022-11-15T09:13:22.933Z,11.43
2022-11-15T09:15:50.082Z,11.40
2022-11-15T09:18:17.230Z,11.35
2022-11-15T09:20:44.365Z,11.95
2022-11-15T09:23:11.520Z,14.15
2022-11-15T09:25:38.667Z,12.02
2022-11-15T09:28:09.572Z,10.75
2022-11-15T09:30:36.730Z,11.82
2022-11-15T09:33:11.861Z,10.13
2022-11-15T09:35:39.161Z,12.80
2022-11-15T09:38:06.329Z,10.88
2022-11-15T09:40:38.314Z,7.35
2022-11-15T09:43:44.326Z,9.77
2022-11-15T09:46:52.080Z,10.00
2022-11-15T09:49:19.983Z,8.75
2022-11-15T09:51:52.183Z,9.43
2022-11-15T09:54:52.227Z,8.40
2022-11-15T09:57:37.606Z,8.32
2022-11-15T10:03:34.417Z,8.32
2022-11-15T10:06:06.112Z,16.42
2022-11-15T10:09:02.530Z,7.70
2022-11-15T10:11:37.836Z,8.55
2022-11-15T10:14:20.599Z,8.15
2022-11-15T10:17:25.018Z,6.53
2022-11-15T10:20:21.501Z,6.95
2022-11-15T10:22:57.459Z,5.93
2022-11-15T10:25:31.923Z,8.73
2022-11-15T10:28:15.313Z,8.23
2022-11-15T10:30:49.593Z,6.80
2022-11-15T10:33:35.153Z,8.05
2022-11-15T10:36:14.085Z,9.13
2022-11-15T10:39:13.450Z,14.02
2022-11-15T10:41:43.126Z,9.25
2022-11-15T10:44:32.237Z,10.52
2022-11-15T10:46:59.372Z,7.65
2022-11-15T10:49:29.930Z,9.35
2022-11-15T10:52:13.124Z,11.88
2022-11-15T10:54:47.274Z,12.00
2022-11-15T10:57:18.674Z,10.82
2022-11-15T10:59:55.195Z,8.65
2022-11-15T11:02:36.783Z,12.88
2022-11-15T11:05:26.312Z,9.40
2022-11-15T11:08:04.402Z,13.52
2022-11-15T11:10:50.844Z,9.25
2022-11-15T11:13:33.368Z,11.80
2022-11-15T11:16:20.292Z,10.25
2022-11-15T11:19:09.058Z,6.82
2022-11-15T11:21:50.609Z,9.55
2022-11-15T11:24:31.811Z,9.93
2022-11-15T11:27:37.627Z,12.93
2022-11-15T11:30:10.918Z,8.60
2022-11-15T11:33:21.119Z,9.35
2022-11-15T11:36:22.835Z,11.85
2022-11-15T11:39:08.828Z,9.70
2022-11-15T11:41:58.616Z,10.82
2022-11-15T11:44:54.063Z,8.48
2022-11-15T11:47:34.578Z,6.40
2022-11-15T11:50:21.554Z,9.27
2022-11-15T11:53:06.721Z,6.93
2022-11-15T11:55:53.707Z,8.25
2022-11-15T11:58:36.690Z,6.95
2022-11-15T12:04:00.345Z,7.22
2022-11-15T12:06:43.556Z,6.65
2022-11-15T12:09:31.739Z,8.30
2022-11-15T12:12:13.989Z,10.13
2022-11-15T12:14:54.763Z,9.67
2022-11-15T12:17:35.079Z,10.50
2022-11-15T12:20:20.616Z,8.00
2022-11-15T12:23:12.526Z,7.78
2022-11-15T12:26:01.186Z,6.72
2022-11-15T12:29:06.456Z,8.45
2022-11-15T12:31:53.463Z,11.82
2022-11-15T12:34:20.507Z,11.15
2022-11-15T12:36:50.370Z,12.93
2022-11-15T12:39:19.385Z,9.15
2022-11-15T12:41:55.510Z,7.47
2022-11-15T12:44:31.465Z,14.98
2022-11-15T12:46:58.537Z,8.57
2022-11-15T12:49:28.367Z,8.73
2022-11-15T12:51:58.362Z,8.57
2022-11-15T12:54:25.462Z,9.75
2022-11-15T12:57:04.627Z,9.60
2022-11-15T13:00:02.712Z,10.13
2022-11-15T13:02:49.385Z,9.32
2022-11-15T13:05:16.608Z,11.00
2022-11-15T13:07:43.887Z,11.68
2022-11-15T13:10:11.058Z,9.32
2022-11-15T13:12:47.206Z,7.60
2022-11-15T13:15:14.346Z,7.68
2022-11-15T13:17:46.159Z,7.47
2022-11-15T13:20:19.672Z,8.73
2022-11-15T13:23:05.609Z,10.50
2022-11-15T13:26:13.092Z,8.73
2022-11-15T13:28:46.246Z,6.93
2022-11-15T13:31:26.740Z,6.97
2022-11-15T13:34:05.345Z,9.80
2022-11-15T13:36:41.068Z,7.15
2022-11-15T13:39:33.577Z,9.20
2022-11-15T13:42:01.374Z,7.88
2022-11-15T13:44:33.388Z,12.15
2022-11-15T13:47:16.484Z,8.52
2022-11-15T13:49:43.737Z,18.88
2022-11-15T13:52:17.375Z,14.57
2022-11-15T13:55:21.610Z,18.27
2022-11-15T13:57:57.743Z,11.18
2022-11-15T14:00:38.564Z,14.80
2022-11-15T14:03:18.042Z,13.75
2022-11-15T14:06:12.735Z,11.07
2022-11-15T14:09:12.070Z,11.30
2022-11-15T14:11:57.625Z,16.13
2022-11-15T14:14:28.036Z,14.15
2022-11-15T14:17:01.273Z,13.10
2022-11-15T14:19:28.374Z,18.80
2022-11-15T14:22:17.156Z,17.00
2022-11-15T14:25:08.932Z,19.80
2022-11-15T14:27:36.307Z,13.75
2022-11-15T14:30:03.971Z,14.00
2022-11-15T14:32:48.004Z,14.77
2022-11-15T14:35:23.220Z,16.38
2022-11-15T14:37:51.055Z,15.50
2022-11-15T14:40:22.992Z,13.18
2022-11-15T14:42:51.131Z,19.40
2022-11-15T14:45:22.762Z,19.25
2022-11-15T14:47:50.258Z,18.13
2022-11-15T14:50:22.483Z,18.88
2022-11-15T14:52:50.049Z,22.50
2022-11-15T14:55:35.931Z,18.80
2022-11-15T14:58:10.844Z,17.17
2022-11-15T15:00:40.973Z,19.45
2022-11-15T15:03:09.187Z,22.23
2022-11-15T15:05:43.453Z,15.65
2022-11-15T15:08:11.827Z,13.75
2022-11-15T15:10:43.985Z,15.57
2022-11-15T15:13:19.589Z,13.77
2022-11-15T15:15:48.619Z,14.38
2022-11-15T15:18:16.377Z,14.57
2022-11-15T15:20:46.776Z,18.30
2022-11-15T15:23:20.050Z,23.80
2022-11-15T15:25:49.944Z,13.40
2022-11-15T15:28:17.327Z,14.38
2022-11-15T15:30:44.631Z,18.67
2022-11-15T15:33:11.839Z,15.68
2022-11-15T15:35:39.190Z,15.82
2022-11-15T15:38:06.438Z,18.15
2022-11-15T15:40:34.396Z,17.83
2022-11-15T15:43:01.649Z,14.90
2022-11-15T15:45:30.517Z,14.23
2022-11-15T15:47:57.894Z,20.15
2022-11-15T15:50:32.839Z,17.50
2022-11-15T15:53:03.165Z,21.02
2022-11-15T15:55:31.236Z,19.63
2022-11-15T15:57:58.862Z,17.48
2022-11-15T16:00:26.404Z,16.80
2022-11-15T16:02:54.576Z,21.08
2022-11-15T16:05:23.131Z,16.08
2022-11-15T16:07:50.704Z,18.58
2022-11-15T16:10:29.455Z,19.13
2022-11-15T16:12:58.210Z,23.40
2022-11-15T16:15:30.342Z,18.70
2022-11-15T16:18:00.920Z,16.90
2022-11-15T16:20:34.672Z,18.38
2022-11-15T16:23:09.020Z,17.85
2022-11-15T16:25:49.674Z,20.02
2022-11-15T16:28:22.387Z,20.83
2022-11-15T16:31:00.810Z,19.88
2022-11-15T16:33:28.233Z,22.80
2022-11-15T16:35:55.396Z,17.05
2022-11-15T16:38:22.609Z,20.60
2022-11-15T16:40:49.895Z,24.98
2022-11-15T16:43:17.248Z,21.20
2022-11-15T16:45:44.842Z,24.50
2022-11-15T16:48:26.952Z,25.83
2022-11-15T16:51:00.704Z,24.52
2022-11-15T16:53:28.237Z,26.30
2022-11-15T16:55:56.070Z,24.23
2022-11-15T16:58:23.959Z,24.23
2022-11-15T17:00:54.008Z,23.15
2022-11-15T17:03:25.144Z,22.38
2022-11-15T17:05:52.856Z,24.33
2022-11-15T17:08:21.857Z,22.38
2022-11-15T17:10:49.408Z,23.40
2022-11-15T17:13:17.070Z,26.50
2022-11-15T17:15:44.289Z,24.00
2022-11-15T17:18:15.937Z,24.33
2022-11-15T17:20:43.513Z,25.17
2022-11-15T17:23:15.094Z,25.35
2022-11-15T17:25:42.493Z,29.88
2022-11-15T17:28:10.408Z,20.83
2022-11-15T17:30:41.800Z,24.90
2022-11-15T17:33:09.031Z,24.95
2022-11-15T17:35:36.263Z,29.30
2022-11-15T17:38:03.478Z,24.55
2022-11-15T17:40:30.940Z,22.50
2022-11-15T17:42:58.078Z,25.27
2022-11-15T17:45:25.302Z,22.77
2022-11-15T17:47:53.744Z,26.75
2022-11-15T17:50:20.899Z,20.65
2022-11-15T17:52:48.045Z,24.05
2022-11-15T17:55:15.429Z,22.92
2022-11-15T17:57:44.141Z,27.00
2022-11-15T18:00:12.380Z,23.10
2022-11-15T18:02:39.588Z,22.85
2022-11-15T18:05:07.598Z,25.15
2022-11-15T18:07:34.827Z,21.73
2022-11-15T18:10:02.012Z,24.65
2022-11-15T18:12:29.461Z,22.33
2022-11-15T18:14:57.952Z,24.60
2022-11-15T18:17:25.177Z,19.58
2022-11-15T18:19:52.338Z,23.08
2022-11-15T18:22:20.432Z,21.42
2022-11-15T18:24:48.193Z,24.73
2022-11-15T18:27:15.372Z,20.58
2022-11-15T18:29:42.668Z,20.90
2022-11-15T18:32:15.035Z,24.60
2022-11-15T18:34:42.165Z,21.02
2022-11-15T18:37:09.687Z,19.77
2022-11-15T18:39:37.769Z,15.40
2022-11-15T18:42:05.386Z,21.02
2022-11-15T18:44:32.660Z,15.50
2022-11-15T18:47:00.181Z,21.83
2022-11-15T18:49:27.664Z,17.40
2022-11-15T18:51:56.006Z,18.65
2022-11-15T18:54:26.875Z,21.27
2022-11-15T18:56:58.017Z,18.17
2022-11-15T18:59:27.585Z,16.85
2022-11-15T19:01:56.036Z,17.83
2022-11-15T19:04:23.433Z,14.90
2022-11-15T19:06:51.307Z,18.58
2022-11-15T19:09:19.673Z,16.83
2022-11-15T19:11:51.419Z,18.08
2022-11-15T19:14:23.947Z,18.55
2022-11-15T19:16:55.050Z,21.35
2022-11-15T19:19:56.996Z,20.42
2022-11-15T19:22:24.543Z,23.02
2022-11-15T19:24:51.732Z,22.48
2022-11-15T19:27:19.155Z,24.13
2022-11-15T19:29:46.362Z,16.88
2022-11-15T19:32:13.639Z,17.33
2022-11-15T19:34:41.637Z,20.77
2022-11-15T19:37:08.824Z,18.98
2022-11-15T19:39:40.002Z,18.73
2022-11-15T19:42:08.625Z,24.13
2022-11-15T19:44:35.808Z,28.30
2022-11-15T19:47:03.017Z,23.98
2022-11-15T19:49:30.174Z,18.23
2022-11-15T19:51:57.560Z,16.45
2022-11-15T19:54:24.822Z,15.32
2022-11-15T19:56:52.092Z,20.58
2022-11-15T19:59:19.318Z,22.38
2022-11-15T20:01:46.715Z,17.52
2022-11-15T20:04:13.867Z,14.77
2022-11-15T20:06:43.492Z,16.85
2022-11-15T20:09:16.156Z,20.40
2022-11-15T20:11:44.035Z,20.30
2022-11-15T20:14:12.931Z,19.02
2022-11-15T20:16:40.491Z,16.33
2022-11-15T20:19:08.691Z,20.27
2022-11-15T20:21:36.142Z,18.35
2022-11-15T20:24:04.591Z,19.15
2022-11-15T20:26:32.215Z,18.30
2022-11-15T20:29:02.010Z,17.45
2022-11-15T20:31:30.685Z,19.92
2022-11-15T20:33:58.809Z,16.15
2022-11-15T20:36:26.311Z,17.10
2022-11-15T20:39:00.372Z,20.98
2022-11-15T20:41:28.271Z,16.02
2022-11-15T20:43:55.924Z,18.75
2022-11-15T20:46:23.179Z,19.20
2022-11-15T20:48:50.394Z,17.35
2022-11-15T20:51:19.498Z,19.80
2022-11-15T20:53:47.788Z,16.67
2022-11-15T20:56:20.428Z,19.73
2022-11-15T20:58:50.364Z,17.45
2022-11-15T21:01:23.490Z,22.30
2022-11-15T21:03:55.596Z,19.75
2022-11-15T21:06:25.099Z,22.60
2022-11-15T21:09:12.727Z,15.00
2022-11-15T21:11:59.222Z,15.20
2022-11-15T21:14:26.405Z,20.10
2022-11-15T21:16:53.715Z,18.98
2022-11-15T21:19:26.641Z,17.77
2022-11-15T21:21:56.141Z,18.88
2022-11-15T21:24:24.618Z,21.17
2022-11-15T21:26:53.041Z,14.35
2022-11-15T21:29:20.637Z,16.58
2022-11-15T21:31:50.980Z,16.05
2022-11-15T21:34:19.178Z,22.95
2022-11-15T21:36:46.651Z,17.77
2022-11-15T21:39:13.890Z,19.25
2022-11-15T21:41:41.164Z,16.48
2022-11-15T21:44:08.669Z,19.85
2022-11-15T21:46:37.196Z,27.27
2022-11-15T21:49:05.687Z,24.75
2022-11-15T21:51:33.601Z,20.58
2022-11-15T21:54:00.915Z,18.92
2022-11-15T21:56:29.637Z,19.50
2022-11-15T21:58:57.173Z,19.00
2022-11-15T22:01:44.683Z,21.13
2022-11-15T22:04:12.369Z,21.38
2022-11-15T22:06:39.782Z,18.88
2022-11-15T22:09:07.655Z,19.77
2022-11-15T22:11:35.589Z,17.83
2022-11-15T22:14:03.380Z,19.98
2022-11-15T22:16:31.577Z,21.92
2022-11-15T22:18:59.322Z,19.15
2022-11-15T22:21:26.649Z,20.92
2022-11-15T22:23:53.844Z,18.92
2022-11-15T22:26:23.765Z,19.83
2022-11-15T22:28:51.849Z,19.42
2022-11-15T22:31:19.541Z,19.05
2022-11-15T22:33:46.969Z,17.30
2022-11-15T22:36:14.742Z,17.98
2022-11-15T22:38:42.114Z,17.88
2022-11-15T22:41:09.454Z,20.77
2022-11-15T22:43:37.162Z,25.98
2022-11-15T22:46:05.603Z,18.15
2022-11-15T22:48:37.560Z,22.27
2022-11-15T22:51:06.660Z,26.13
2022-11-15T22:53:33.911Z,19.50
2022-11-15T22:56:04.354Z,21.35
2022-11-15T22:58:33.227Z,23.20
2022-11-15T23:01:05.320Z,20.50
2022-11-15T23:03:34.062Z,21.25
2022-11-15T23:06:05.221Z,25.23
2022-11-15T23:08:33.228Z,27.33
2022-11-15T23:11:24.065Z,23.77
2022-11-15T23:13:52.236Z,22.45
2022-11-15T23:16:23.749Z,22.35
2022-11-15T23:18:57.708Z,23.25
2022-11-15T23:21:53.804Z,27.60
2022-11-15T23:24:21.956Z,24.85
2022-11-15T23:26:53.434Z,29.17
2022-11-15T23:29:23.484Z,25.60
2022-11-15T23:32:11.187Z,28.65
2022-11-15T23:34:42.720Z,29.13
2022-11-15T23:37:14.507Z,30.52
2022-11-15T23:39:41.718Z,27.40
2022-11-15T23:42:09.784Z,30.02
2022-11-15T23:44:37.329Z,34.65
2022-11-15T23:47:04.810Z,32.97
2022-11-15T23:49:32.095Z,28.88
2022-11-15T23:51:59.302Z,32.05
2022-11-15T23:54:26.663Z,36.33
2022-11-15T23:56:53.932Z,29.73
2022-11-15T23:59:21.188Z,36.28
